createdAt,value
2023-05-10T00:00:32.931Z,75.50
2023-05-10T00:02:59.981Z,75.00
2023-05-10T00:05:26.900Z,75.00
2023-05-10T00:07:53.779Z,75.50
2023-05-10T00:10:20.866Z,75.50
2023-05-10T00:12:47.711Z,74.70
2023-05-10T00:15:14.725Z,74.20
2023-05-10T00:17:41.729Z,74.30
2023-05-10T00:20:09.187Z,74.70
2023-05-10T00:22:36.475Z,74.30
2023-05-10T00:25:03.762Z,75.30
2023-05-10T00:27:30.684Z,75.10
2023-05-10T00:29:57.565Z,74.10
2023-05-10T00:32:24.498Z,75.40
2023-05-10T00:34:52.050Z,75.00
2023-05-10T00:37:18.918Z,75.30
2023-05-10T00:39:45.955Z,75.90
2023-05-10T00:42:12.835Z,75.90
2023-05-10T00:44:39.807Z,75.60
2023-05-10T00:47:07.736Z,75.70
2023-05-10T00:49:36.658Z,75.40
2023-05-10T00:52:04.079Z,76.10
2023-05-10T00:54:31.349Z,75.80
2023-05-10T00:56:58.393Z,75.20
2023-05-10T00:59:25.522Z,75.40
2023-05-10T01:01:52.992Z,75.30
2023-05-10T01:04:26.537Z,75.50
2023-05-10T01:06:54.732Z,75.50
2023-05-10T01:09:22.674Z,75.90
2023-05-10T01:11:50.498Z,75.10
2023-05-10T01:14:20.885Z,75.00
2023-05-10T01:16:49.426Z,74.40
2023-05-10T01:19:22.219Z,74.40
2023-05-10T01:22:14.056Z,74.10
2023-05-10T01:25:04.063Z,73.70
2023-05-10T01:27:47.498Z,73.70
2023-05-10T01:30:23.914Z,73.00
2023-05-10T01:33:17.491Z,73.10
2023-05-10T01:35:58.066Z,72.80
2023-05-10T01:38:40.199Z,72.90
2023-05-10T01:41:18.990Z,72.90
2023-05-10T01:44:10.278Z,72.60
2023-05-10T01:46:39.490Z,73.10
2023-05-10T01:49:15.358Z,73.90
2023-05-10T01:51:55.714Z,73.80
2023-05-10T01:54:24.641Z,73.70
2023-05-10T01:57:00.505Z,74.00
2023-05-10T01:59:32.753Z,74.50
2023-05-10T02:02:02.219Z,75.00
2023-05-10T02:04:29.855Z,75.40
2023-05-10T02:06:57.435Z,77.00
2023-05-10T02:09:28.227Z,78.60
2023-05-10T02:11:56.179Z,78.90
2023-05-10T02:14:25.417Z,79.30
2023-05-10T02:16:54.257Z,80.20
2023-05-10T02:19:22.852Z,80.90
2023-05-10T02:21:52.228Z,81.30
2023-05-10T02:24:20.110Z,82.20
2023-05-10T02:26:50.089Z,83.40
2023-05-10T02:29:18.386Z,84.30
2023-05-10T02:31:46.729Z,85.10
2023-05-10T02:34:14.655Z,86.80
2023-05-10T02:36:42.681Z,88.00
2023-05-10T02:39:13.691Z,90.00
2023-05-10T02:41:43.125Z,90.80
2023-05-10T02:44:11.887Z,91.70
2023-05-10T02:46:39.115Z,92.60
2023-05-10T02:49:06.860Z,93.30
2023-05-10T02:51:37.448Z,94.00
2023-05-10T02:54:28.493Z,94.50
2023-05-10T02:57:01.676Z,94.90
2023-05-10T02:59:28.622Z,95.20
2023-05-10T03:01:55.579Z,95.50
2023-05-10T03:04:23.230Z,95.80
2023-05-10T03:06:51.634Z,96.10
2023-05-10T03:09:18.745Z,96.30
2023-05-10T03:12:13.658Z,96.40
2023-05-10T03:14:54.380Z,96.80
2023-05-10T03:17:42.193Z,97.20
2023-05-10T03:20:12.739Z,97.40
2023-05-10T03:22:45.525Z,97.80
2023-05-10T03:25:13.296Z,98.20
2023-05-10T03:27:43.662Z,98.40
2023-05-10T03:30:13.197Z,98.60
2023-05-10T03:32:40.872Z,99.00
2023-05-10T03:35:09.715Z,99.10
2023-05-10T03:37:37.471Z,99.50
2023-05-10T03:40:05.188Z,99.90
2023-05-10T03:42:34.454Z,99.90
2023-05-10T03:45:01.491Z,99.90
2023-05-10T03:47:28.470Z,99.90
2023-05-10T03:49:55.353Z,99.90
2023-05-10T03:52:23.010Z,99.90
2023-05-10T03:54:49.848Z,99.90
2023-05-10T03:57:16.991Z,99.90
2023-05-10T03:59:43.864Z,99.90
2023-05-10T04:02:10.720Z,99.90
2023-05-10T04:04:37.553Z,99.90
2023-05-10T04:07:04.545Z,99.90
2023-05-10T04:09:31.495Z,99.90
2023-05-10T04:11:59.933Z,99.90
2023-05-10T04:14:26.906Z,99.90
2023-05-10T04:16:53.771Z,99.90
2023-05-10T04:19:21.182Z,99.90
2023-05-10T04:21:48.057Z,99.90
2023-05-10T04:24:15.190Z,99.90
2023-05-10T04:26:42.170Z,99.90
2023-05-10T04:29:08.962Z,99.90
2023-05-10T04:31:37.332Z,99.90
2023-05-10T04:34:04.340Z,99.90
2023-05-10T04:36:31.330Z,99.90
2023-05-10T04:38:58.206Z,99.90
2023-05-10T04:41:26.285Z,99.90
2023-05-10T04:43:53.458Z,99.90
2023-05-10T04:46:20.460Z,99.90
2023-05-10T04:48:47.357Z,99.90
2023-05-10T04:51:14.498Z,99.90
2023-05-10T04:53:43.015Z,99.90
2023-05-10T04:56:11.465Z,99.90
2023-05-10T04:58:38.409Z,99.90
2023-05-10T05:01:09.559Z,99.90
2023-05-10T05:03:36.754Z,99.90
2023-05-10T05:06:04.466Z,99.90
2023-05-10T05:08:32.205Z,99.90
2023-05-10T05:11:00.342Z,99.80
2023-05-10T05:13:27.318Z,99.60
2023-05-10T05:15:54.596Z,99.30
2023-05-10T05:18:21.542Z,98.80
2023-05-10T05:20:48.357Z,98.20
2023-05-10T05:23:15.249Z,98.00
2023-05-10T05:25:43.132Z,97.90
2023-05-10T05:28:10.056Z,97.90
2023-05-10T05:30:37.035Z,97.40
2023-05-10T05:33:04.145Z,97.10
2023-05-10T05:35:31.073Z,96.90
2023-05-10T05:37:58.109Z,96.50
2023-05-10T05:40:24.954Z,96.10
2023-05-10T05:42:51.914Z,95.90
2023-05-10T05:45:19.169Z,95.70
2023-05-10T05:47:46.338Z,95.50
2023-05-10T05:50:13.475Z,95.30
2023-05-10T05:52:40.335Z,95.10
2023-05-10T05:55:07.419Z,95.00
2023-05-10T05:57:34.990Z,94.90
2023-05-10T06:00:03.428Z,94.70
2023-05-10T06:02:39.584Z,94.50
2023-05-10T06:05:07.076Z,94.20
2023-05-10T06:07:34.014Z,94.00
2023-05-10T06:10:00.965Z,94.10
2023-05-10T06:12:27.831Z,94.10
2023-05-10T06:14:54.795Z,94.00
2023-05-10T06:17:22.665Z,93.70
2023-05-10T06:19:49.620Z,93.50
2023-05-10T06:22:16.449Z,93.10
2023-05-10T06:24:43.381Z,93.00
2023-05-10T06:27:10.275Z,92.80
2023-05-10T06:29:37.224Z,92.60
2023-05-10T06:32:04.254Z,92.50
2023-05-10T06:34:31.335Z,91.90
2023-05-10T06:36:58.352Z,92.10
2023-05-10T06:39:25.229Z,92.20
2023-05-10T06:41:52.201Z,92.00
2023-05-10T06:44:19.907Z,91.20
2023-05-10T06:46:46.831Z,91.30
2023-05-10T06:49:13.788Z,91.40
2023-05-10T06:51:41.249Z,90.80
2023-05-10T06:54:08.115Z,90.80
2023-05-10T06:56:34.928Z,90.60
2023-05-10T06:59:01.966Z,90.30
2023-05-10T07:01:29.034Z,90.20
2023-05-10T07:03:56.433Z,90.00
2023-05-10T07:06:32.960Z,89.20
2023-05-10T07:09:01.407Z,89.00
2023-05-10T07:11:28.515Z,89.20
2023-05-10T07:13:55.362Z,87.80
2023-05-10T07:16:22.969Z,87.40
2023-05-10T07:18:51.709Z,86.80
2023-05-10T07:21:18.826Z,85.30
2023-05-10T07:23:45.902Z,85.00
2023-05-10T07:26:12.954Z,85.00
2023-05-10T07:28:40.124Z,80.80
2023-05-10T07:31:07.096Z,79.10
2023-05-10T07:33:34.075Z,78.60
2023-05-10T07:36:01.408Z,77.30
2023-05-10T07:38:28.458Z,76.00
2023-05-10T07:40:55.259Z,76.00
2023-05-10T07:43:22.035Z,75.00
2023-05-10T07:45:49.089Z,75.00
2023-05-10T07:48:16.051Z,72.40
2023-05-10T07:50:43.191Z,73.30
2023-05-10T07:53:10.387Z,72.60
2023-05-10T07:55:37.500Z,72.70
2023-05-10T07:58:04.624Z,72.40
2023-05-10T08:00:31.661Z,69.50
2023-05-10T08:02:58.595Z,67.70
2023-05-10T08:05:25.471Z,65.90
2023-05-10T08:07:52.469Z,64.10
2023-05-10T08:10:19.412Z,65.30
2023-05-10T08:12:46.311Z,63.90
2023-05-10T08:15:13.253Z,64.60
2023-05-10T08:17:40.451Z,63.00
2023-05-10T08:20:08.898Z,61.20
2023-05-10T08:22:35.894Z,61.20
2023-05-10T08:25:02.829Z,62.30
2023-05-10T08:27:29.737Z,60.90
2023-05-10T08:29:56.565Z,60.40
2023-05-10T08:32:23.751Z,59.60
2023-05-10T08:34:50.576Z,59.30
2023-05-10T08:37:18.095Z,60.60
2023-05-10T08:39:46.224Z,58.90
2023-05-10T08:42:14.093Z,58.50
2023-05-10T08:44:41.354Z,59.20
2023-05-10T08:47:10.129Z,58.50
2023-05-10T08:49:38.779Z,59.10
2023-05-10T08:52:08.392Z,59.90
2023-05-10T08:54:35.650Z,58.10
2023-05-10T08:57:02.990Z,59.20
2023-05-10T08:59:30.055Z,58.80
2023-05-10T09:01:59.036Z,57.90
2023-05-10T09:04:26.673Z,58.20
2023-05-10T09:06:55.201Z,58.20
2023-05-10T09:09:22.917Z,57.50
2023-05-10T09:11:50.133Z,56.40
2023-05-10T09:14:18.763Z,56.70
2023-05-10T09:16:46.037Z,56.90
2023-05-10T09:19:13.168Z,55.70
2023-05-10T09:21:40.291Z,55.80
2023-05-10T09:24:08.948Z,56.10
2023-05-10T09:26:37.266Z,55.60
2023-05-10T09:29:04.324Z,56.60
2023-05-10T09:31:47.607Z,56.30
2023-05-10T09:34:19.329Z,57.20
2023-05-10T09:37:01.740Z,56.30
2023-05-10T09:39:34.345Z,55.60
2023-05-10T09:42:04.938Z,56.00
2023-05-10T09:44:33.560Z,56.00
2023-05-10T09:47:01.409Z,55.80
2023-05-10T09:49:28.446Z,56.90
2023-05-10T09:52:09.023Z,55.90
2023-05-10T09:54:36.976Z,55.50
2023-05-10T09:57:04.283Z,55.30
2023-05-10T09:59:35.875Z,53.50
2023-05-10T10:02:03.990Z,53.30
2023-05-10T10:04:31.296Z,53.30
2023-05-10T10:07:06.207Z,53.40
2023-05-10T10:09:34.813Z,53.90
2023-05-10T10:12:03.114Z,52.50
2023-05-10T10:14:31.004Z,52.50
2023-05-10T10:17:07.588Z,52.10
2023-05-10T10:19:38.800Z,52.80
2023-05-10T10:22:06.816Z,53.20
2023-05-10T10:24:34.990Z,51.30
2023-05-10T10:27:29.494Z,51.80
2023-05-10T10:30:21.767Z,52.60
2023-05-10T10:33:28.812Z,53.60
2023-05-10T10:35:56.976Z,51.60
2023-05-10T10:38:24.671Z,52.80
2023-05-10T10:41:04.455Z,52.00
2023-05-10T10:43:31.520Z,51.50
2023-05-10T10:46:18.893Z,51.40
2023-05-10T10:49:09.968Z,50.70
2023-05-10T10:51:40.636Z,51.60
2023-05-10T10:54:13.950Z,51.50
2023-05-10T10:56:40.851Z,50.40
2023-05-10T10:59:09.493Z,51.10
2023-05-10T11:01:36.787Z,50.80
2023-05-10T11:04:06.860Z,50.40
2023-05-10T11:06:35.897Z,49.50
2023-05-10T11:09:12.460Z,48.90
2023-05-10T11:11:59.583Z,49.50
2023-05-10T11:14:26.926Z,49.20
2023-05-10T11:16:53.891Z,50.00
2023-05-10T11:19:21.013Z,49.20
2023-05-10T11:21:49.148Z,49.50
2023-05-10T11:24:17.198Z,50.50
2023-05-10T11:26:44.353Z,50.30
2023-05-10T11:29:13.101Z,49.40
2023-05-10T11:31:45.955Z,49.40
2023-05-10T11:34:13.783Z,48.80
2023-05-10T11:36:40.634Z,49.80
2023-05-10T11:39:07.664Z,50.10
2023-05-10T11:41:34.773Z,49.40
2023-05-10T11:44:02.737Z,49.40
2023-05-10T11:46:29.930Z,49.30
2023-05-10T11:49:02.825Z,49.10
2023-05-10T11:51:29.959Z,49.30
2023-05-10T11:53:58.478Z,48.90
2023-05-10T11:56:27.235Z,48.50
2023-05-10T11:58:56.850Z,48.80
2023-05-10T12:01:25.196Z,49.10
2023-05-10T12:03:53.977Z,49.20
2023-05-10T12:06:21.612Z,49.30
2023-05-10T12:08:53.408Z,48.40
2023-05-10T12:11:22.640Z,47.60
2023-05-10T12:13:50.839Z,47.60
2023-05-10T12:16:19.097Z,47.40
2023-05-10T12:18:46.571Z,46.80
2023-05-10T12:21:13.801Z,47.30
2023-05-10T12:23:41.060Z,47.10
2023-05-10T12:26:10.686Z,47.10
2023-05-10T12:28:38.560Z,47.20
2023-05-10T12:31:06.424Z,46.40
2023-05-10T12:33:45.702Z,46.60
2023-05-10T12:36:14.547Z,45.90
2023-05-10T12:38:48.893Z,46.10
2023-05-10T12:41:19.794Z,45.90
2023-05-10T12:43:47.454Z,45.60
2023-05-10T12:46:17.419Z,46.70
2023-05-10T12:48:45.584Z,46.40
2023-05-10T12:51:14.185Z,46.00
2023-05-10T12:53:44.203Z,45.90
2023-05-10T12:56:12.188Z,45.90
2023-05-10T12:58:39.678Z,46.20
2023-05-10T13:01:06.836Z,45.80
2023-05-10T13:03:33.971Z,46.00
2023-05-10T13:06:00.894Z,46.30
2023-05-10T13:08:28.036Z,45.80
2023-05-10T13:10:55.295Z,46.10
2023-05-10T13:13:22.136Z,45.60
2023-05-10T13:15:49.110Z,45.30
2023-05-10T13:18:16.209Z,45.50
2023-05-10T13:20:45.264Z,45.20
2023-05-10T13:23:12.198Z,45.40
2023-05-10T13:25:39.263Z,45.40
2023-05-10T13:28:06.154Z,46.70
2023-05-10T13:30:33.017Z,45.80
2023-05-10T13:32:59.977Z,47.50
2023-05-10T13:35:26.946Z,46.90
2023-05-10T13:37:54.550Z,47.20
2023-05-10T13:40:21.446Z,47.20
2023-05-10T13:42:48.330Z,46.90
2023-05-10T13:45:15.674Z,46.90
2023-05-10T13:47:43.177Z,47.10
2023-05-10T13:50:10.439Z,47.30
2023-05-10T13:52:37.341Z,47.10
2023-05-10T13:55:04.846Z,47.20
2023-05-10T13:57:31.915Z,46.90
2023-05-10T13:59:59.133Z,46.70
2023-05-10T14:02:28.514Z,46.80
2023-05-10T14:04:55.597Z,47.10
2023-05-10T14:07:22.743Z,46.10
2023-05-10T14:09:49.722Z,46.40
2023-05-10T14:12:17.351Z,46.30
2023-05-10T14:14:44.301Z,46.40
2023-05-10T14:17:12.503Z,47.00
2023-05-10T14:19:40.005Z,47.30
2023-05-10T14:22:07.083Z,46.70
2023-05-10T14:24:34.399Z,47.20
2023-05-10T14:27:01.504Z,47.40
2023-05-10T14:29:28.488Z,47.30
2023-05-10T14:31:55.760Z,47.90
2023-05-10T14:34:22.745Z,48.00
2023-05-10T14:36:49.736Z,46.60
2023-05-10T14:39:16.664Z,46.90
2023-05-10T14:41:45.640Z,48.00
2023-05-10T14:44:12.634Z,47.60
2023-05-10T14:46:40.531Z,47.00
2023-05-10T14:49:07.542Z,47.50
2023-05-10T14:51:34.910Z,47.80
2023-05-10T14:54:05.023Z,47.80
2023-05-10T14:56:33.400Z,47.50
2023-05-10T14:59:01.192Z,47.20
2023-05-10T15:01:28.928Z,48.00
2023-05-10T15:03:56.369Z,47.80
2023-05-10T15:06:33.053Z,47.10
2023-05-10T15:09:00.095Z,47.40
2023-05-10T15:11:27.041Z,47.60
2023-05-10T15:13:54.459Z,47.70
2023-05-10T15:16:21.702Z,47.10
2023-05-10T15:18:49.484Z,46.80
2023-05-10T15:21:16.366Z,47.00
2023-05-10T15:23:43.245Z,47.50
2023-05-10T15:26:10.112Z,46.70
2023-05-10T15:28:36.990Z,46.70
2023-05-10T15:31:04.074Z,46.00
2023-05-10T15:33:31.051Z,46.00
2023-05-10T15:35:58.132Z,46.50
2023-05-10T15:38:24.991Z,46.70
2023-05-10T15:40:52.037Z,46.70
2023-05-10T15:43:19.006Z,46.80
2023-05-10T15:45:45.780Z,46.70
2023-05-10T15:48:13.237Z,46.90
2023-05-10T15:50:41.264Z,46.80
2023-05-10T15:53:08.161Z,46.80
2023-05-10T15:55:35.521Z,46.30
2023-05-10T15:58:02.452Z,46.00
2023-05-10T16:00:29.677Z,46.50
2023-05-10T16:02:56.618Z,46.40
2023-05-10T16:05:24.473Z,45.70
2023-05-10T16:07:51.498Z,45.60
2023-05-10T16:10:18.510Z,45.80
2023-05-10T16:12:45.367Z,46.00
2023-05-10T16:15:12.308Z,45.80
2023-05-10T16:17:39.319Z,45.50
2023-05-10T16:20:07.027Z,45.90
2023-05-10T16:22:34.196Z,45.40
2023-05-10T16:25:01.199Z,45.20
2023-05-10T16:27:30.382Z,45.50
2023-05-10T16:29:57.319Z,45.00
2023-05-10T16:32:24.326Z,44.40
2023-05-10T16:34:53.298Z,44.30
2023-05-10T16:37:20.183Z,44.40
2023-05-10T16:39:47.081Z,44.70
2023-05-10T16:42:14.326Z,45.00
2023-05-10T16:44:41.507Z,44.20
2023-05-10T16:47:08.718Z,44.70
2023-05-10T16:49:37.243Z,45.00
2023-05-10T16:52:04.144Z,44.70
2023-05-10T16:54:31.013Z,44.60
2023-05-10T16:56:57.912Z,45.00
2023-05-10T16:59:24.720Z,45.50
2023-05-10T17:01:53.179Z,45.30
2023-05-10T17:04:20.362Z,46.30
2023-05-10T17:06:47.206Z,46.30
2023-05-10T17:09:14.209Z,46.20
2023-05-10T17:11:42.174Z,46.10
2023-05-10T17:14:10.130Z,46.20
2023-05-10T17:16:37.236Z,45.80
2023-05-10T17:19:04.303Z,46.90
2023-05-10T17:21:32.164Z,46.40
2023-05-10T17:23:59.217Z,46.40
2023-05-10T17:26:27.588Z,46.40
2023-05-10T17:28:54.905Z,46.80
2023-05-10T17:31:21.986Z,46.80
2023-05-10T17:33:48.863Z,47.00
2023-05-10T17:36:15.935Z,47.40
2023-05-10T17:38:43.443Z,46.90
2023-05-10T17:41:10.493Z,46.70
2023-05-10T17:43:37.381Z,47.70
2023-05-10T17:46:04.481Z,47.10
2023-05-10T17:48:31.765Z,47.20
2023-05-10T17:50:58.639Z,47.20
2023-05-10T17:53:25.687Z,47.20
2023-05-10T17:55:59.003Z,47.50
2023-05-10T17:58:25.882Z,47.60
2023-05-10T18:00:53.308Z,48.30
2023-05-10T18:03:20.441Z,48.50
2023-05-10T18:05:48.031Z,48.90
2023-05-10T18:08:15.144Z,49.20
2023-05-10T18:10:42.030Z,48.90
2023-05-10T18:13:09.376Z,49.70
2023-05-10T18:15:36.455Z,49.40
2023-05-10T18:18:04.617Z,49.30
2023-05-10T18:20:32.219Z,49.10
2023-05-10T18:22:59.127Z,49.10
2023-05-10T18:25:26.142Z,49.70
2023-05-10T18:27:53.082Z,49.50
2023-05-10T18:30:20.054Z,49.40
2023-05-10T18:32:47.282Z,49.60
2023-05-10T18:35:14.255Z,50.10
2023-05-10T18:37:41.385Z,50.00
2023-05-10T18:40:14.794Z,50.20
2023-05-10T18:42:42.064Z,50.30
2023-05-10T18:45:09.324Z,50.50
2023-05-10T18:47:36.274Z,50.70
2023-05-10T18:50:05.359Z,51.10
2023-05-10T18:52:32.436Z,51.40
2023-05-10T18:54:59.532Z,51.80
2023-05-10T18:57:26.470Z,51.90
2023-05-10T18:59:53.345Z,51.90
2023-05-10T19:02:20.556Z,52.10
2023-05-10T19:04:47.632Z,52.40
2023-05-10T19:07:14.609Z,52.30
2023-05-10T19:09:41.547Z,52.60
2023-05-10T19:12:08.874Z,53.20
2023-05-10T19:14:35.836Z,53.60
2023-05-10T19:17:03.642Z,53.50
2023-05-10T19:19:31.961Z,53.90
2023-05-10T19:21:58.982Z,54.20
2023-05-10T19:24:26.023Z,54.50
2023-05-10T19:26:53.262Z,54.40
2023-05-10T19:29:20.155Z,54.60
2023-05-10T19:31:47.181Z,54.80
2023-05-10T19:34:14.190Z,54.80
2023-05-10T19:36:41.080Z,55.00
2023-05-10T19:39:08.061Z,55.10
2023-05-10T19:41:34.963Z,55.30
2023-05-10T19:44:01.966Z,55.50
2023-05-10T19:46:29.526Z,55.50
2023-05-10T19:48:56.500Z,55.90
2023-05-10T19:51:23.378Z,56.30
2023-05-10T19:53:50.322Z,56.30
2023-05-10T19:56:18.408Z,56.50
2023-05-10T19:58:45.537Z,56.90
2023-05-10T20:01:13.064Z,56.70
2023-05-10T20:03:40.069Z,56.60
2023-05-10T20:06:06.960Z,57.20
2023-05-10T20:08:33.954Z,57.70
2023-05-10T20:11:02.929Z,57.60
2023-05-10T20:13:30.051Z,57.90
2023-05-10T20:15:58.169Z,58.10
2023-05-10T20:18:25.844Z,57.80
2023-05-10T20:20:57.527Z,57.70
2023-05-10T20:23:24.634Z,58.20
2023-05-10T20:25:52.230Z,58.30
2023-05-10T20:28:25.394Z,58.50
2023-05-10T20:30:54.087Z,59.00
2023-05-10T20:33:24.709Z,58.60
2023-05-10T20:35:52.394Z,58.80
2023-05-10T20:38:19.399Z,59.00
2023-05-10T20:40:47.254Z,59.20
2023-05-10T20:43:14.113Z,59.70
2023-05-10T20:45:41.136Z,59.70
2023-05-10T20:48:08.611Z,59.90
2023-05-10T20:50:35.663Z,60.10
2023-05-10T20:53:02.568Z,59.90
2023-05-10T20:55:29.466Z,60.00
2023-05-10T20:57:56.367Z,60.10
2023-05-10T21:00:23.214Z,60.00
2023-05-10T21:02:50.335Z,60.30
2023-05-10T21:05:18.479Z,60.40
2023-05-10T21:07:45.231Z,60.40
2023-05-10T21:10:12.391Z,60.50
2023-05-10T21:12:39.295Z,61.50
2023-05-10T21:15:06.930Z,62.10
2023-05-10T21:17:33.859Z,61.20
2023-05-10T21:20:00.916Z,63.60
2023-05-10T21:22:27.858Z,64.10
2023-05-10T21:24:54.734Z,64.00
2023-05-10T21:27:21.645Z,64.30
2023-05-10T21:29:48.469Z,64.40
2023-05-10T21:32:15.377Z,64.80
2023-05-10T21:34:42.674Z,65.40
2023-05-10T21:37:09.548Z,65.00
2023-05-10T21:39:36.374Z,65.60
2023-05-10T21:42:04.005Z,65.80
2023-05-10T21:44:32.041Z,66.30
2023-05-10T21:46:58.848Z,66.40
2023-05-10T21:49:25.910Z,66.50
2023-05-10T21:51:52.904Z,66.80
2023-05-10T21:54:19.837Z,66.60
2023-05-10T21:56:47.578Z,66.70
2023-05-10T21:59:14.449Z,66.80
2023-05-10T22:01:41.939Z,66.90
2023-05-10T22:04:08.915Z,67.20
2023-05-10T22:06:36.080Z,67.30
2023-05-10T22:09:02.960Z,67.50
2023-05-10T22:11:30.350Z,67.40
2023-05-10T22:13:58.145Z,67.20
2023-05-10T22:16:25.120Z,66.70
2023-05-10T22:18:54.154Z,67.40
2023-05-10T22:21:21.446Z,67.40
2023-05-10T22:23:48.380Z,67.40
2023-05-10T22:26:15.320Z,67.40
2023-05-10T22:28:42.352Z,67.60
2023-05-10T22:31:11.545Z,67.30
2023-05-10T22:33:38.783Z,68.50
2023-05-10T22:36:06.651Z,68.70
2023-05-10T22:38:33.419Z,68.80
2023-05-10T22:41:00.401Z,68.80
2023-05-10T22:43:27.290Z,68.70
2023-05-10T22:45:54.362Z,69.40
2023-05-10T22:48:22.227Z,69.60
2023-05-10T22:50:49.189Z,69.40
2023-05-10T22:53:16.406Z,69.30
2023-05-10T22:55:43.443Z,70.10
2023-05-10T22:58:10.534Z,69.70
2023-05-10T23:00:38.188Z,70.30
2023-05-10T23:03:06.618Z,70.90
2023-05-10T23:05:33.560Z,71.00
2023-05-10T23:08:00.688Z,72.10
2023-05-10T23:10:27.765Z,72.00
2023-05-10T23:12:56.132Z,72.30
2023-05-10T23:15:23.192Z,72.50
2023-05-10T23:17:50.466Z,72.90
2023-05-10T23:20:17.546Z,73.20
2023-05-10T23:22:44.977Z,73.50
2023-05-10T23:25:12.000Z,73.80
2023-05-10T23:27:39.412Z,74.30
2023-05-10T23:30:09.582Z,74.70
2023-05-10T23:32:36.573Z,75.00
2023-05-10T23:35:03.609Z,75.50
2023-05-10T23:37:30.562Z,75.90
2023-05-10T23:39:57.527Z,77.10
2023-05-10T23:42:24.358Z,77.90
2023-05-10T23:44:52.363Z,78.30
2023-05-10T23:47:19.126Z,78.70
2023-05-10T23:49:46.075Z,79.90
2023-05-10T23:52:13.068Z,80.60
2023-05-10T23:54:40.030Z,81.30
2023-05-10T23:57:06.988Z,82.50
2023-05-10T23:59:33.933Z,82.50
